Time;durP1;ratioP1;P1;durP2;ratioP2;P2;SDS_P1;SDS_P2;PMS_P1;PMS_P2;Temp;Humidity;BMP_temperature;BMP_pressure;BME280_temperature;BME280_humidity;BME280_pressure;Samples;Min_cycle;Max_cycle;Signal;HPM_P1;HPM_P2
2023/08/02 18:32:30;;;;;;;11.15;5.45;;;20.00;99.90;;;;;;5139729;27;1269982;-87
2023/08/02 18:35:14;;;;;;;12.80;4.43;;;20.10;99.90;;;;;;5157299;27;20402;-86
2023/08/02 18:37:59;;;;;;;10.20;4.03;;;;;;;;;;5148605;27;20100;-87
2023/08/02 18:40:43;;;;;;;12.05;3.15;;;;;;;;;;5156178;27;20494;-83
2023/08/02 18:43:28;;;;;;;10.63;3.42;;;;;;;;;;5156196;27;20046;-86
2023/08/02 18:46:15;;;;;;;12.65;3.90;;;21.40;99.90;;;;;;5144844;27;20091;-85
2023/08/02 18:48:59;;;;;;;9.23;2.47;;;18.90;99.90;;;;;;5149496;27;20037;-87
2023/08/02 18:51:43;;;;;;;9.85;2.97;;;18.20;99.90;;;;;;5160223;27;20088;-87
2023/08/02 18:54:30;;;;;;;8.68;2.72;;;18.30;99.90;;;;;;5157675;27;20080;-87
2023/08/02 18:57:15;;;;;;;7.07;2.55;;;;;;;;;;5152263;27;20131;-87
2023/08/02 19:00:01;;;;;;;9.05;2.40;;;18.40;99.90;;;;;;5168824;27;20114;-85
2023/08/02 19:02:45;;;;;;;9.45;2.97;;;;;;;;;;5155796;27;20091;-85
2023/08/02 19:05:32;;;;;;;8.57;2.63;;;;;;;;;;5162958;27;20041;-83
2023/08/02 19:08:16;;;;;;;7.88;2.40;;;;;;;;;;5162978;27;20111;-87
2023/08/02 19:11:01;;;;;;;9.50;2.90;;;18.10;99.90;;;;;;5161961;27;20049;-86
2023/08/02 19:13:46;;;;;;;15.15;3.10;;;;;;;;;;5138372;27;20038;-87
2023/08/02 19:16:31;;;;;;;9.65;2.50;;;18.00;99.90;;;;;;5143852;27;20041;-86
2023/08/02 19:19:24;;;;;;;8.48;2.28;;;17.80;99.90;;;;;;5150490;27;20033;-88
2023/08/02 19:22:11;;;;;;;9.65;2.10;;;17.70;99.90;;;;;;5139377;27;20095;-86
2023/08/02 19:24:55;;;;;;;13.02;2.55;;;;;;;;;;5159097;27;20042;-87
2023/08/02 19:27:40;;;;;;;10.50;2.83;;;17.60;99.90;;;;;;5162837;27;20103;-88
2023/08/02 19:30:25;;;;;;;11.60;2.53;;;;;;;;;;5145878;27;20040;-86
2023/08/02 19:33:13;;;;;;;9.60;3.03;;;17.50;99.90;;;;;;5133657;27;20130;-87
2023/08/02 19:35:57;;;;;;;14.10;2.80;;;17.20;99.90;;;;;;5145109;27;20106;-86
2023/08/02 19:38:41;;;;;;;12.23;3.20;;;17.20;99.90;;;;;;5129773;27;20035;-87
2023/08/02 19:41:27;;;;;;;12.32;3.28;;;17.20;99.90;;;;;;5144827;27;20099;-86
2023/08/02 19:44:11;;;;;;;10.90;3.00;;;;;;;;;;5136545;27;20130;-87
2023/08/02 19:46:56;;;;;;;13.35;2.70;;;;;;;;;;5133576;27;20118;-88
2023/08/02 19:49:42;;;;;;;14.50;3.30;;;;;;;;;;5144096;27;20130;-89
2023/08/02 19:52:28;;;;;;;10.85;3.10;;;17.00;99.90;;;;;;5148669;27;20398;-88
2023/08/02 19:55:14;;;;;;;13.63;3.17;;;;;;;;;;5136494;27;20525;-87
2023/08/02 19:57:59;;;;;;;12.23;2.92;;;;;;;;;;5139661;27;20079;-89
2023/08/02 20:00:50;;;;;;;9.63;2.97;;;16.90;99.90;;;;;;5132180;27;20050;-89
2023/08/02 20:03:34;;;;;;;11.75;3.00;;;;;;;;;;5135585;27;20030;-91
2023/08/02 20:06:19;;;;;;;12.40;3.00;;;17.20;99.90;;;;;;5150153;27;20049;-90
2023/08/02 20:09:04;;;;;;;13.38;2.42;;;16.90;99.90;;;;;;5104965;27;20058;-88
2023/08/02 20:11:48;;;;;;;11.10;3.10;;;;;;;;;;5120334;27;20046;-89
2023/08/02 20:14:33;;;;;;;11.10;3.20;;;16.80;99.90;;;;;;5139874;27;20512;-90
2023/08/02 20:17:17;;;;;;;15.52;3.30;;;;;;;;;;5145333;27;20037;-91
2023/08/02 20:20:02;;;;;;;8.77;2.95;;;17.00;99.90;;;;;;5139220;27;20076;-90
2023/08/02 20:22:47;;;;;;;14.27;3.13;;;;;;;;;;5153986;27;20171;-90
2023/08/02 20:25:31;;;;;;;10.88;3.08;;;16.90;99.90;;;;;;5155250;27;20139;-91
2023/08/02 20:28:17;;;;;;;10.82;3.10;;;16.70;99.90;;;;;;5136285;27;20034;-90
2023/08/02 20:31:10;;;;;;;14.07;2.67;;;16.70;99.90;;;;;;5133970;27;20077;-90
2023/08/02 20:33:55;;;;;;;12.05;2.85;;;;;;;;;;5134579;27;20387;-91
2023/08/02 20:36:41;;;;;;;12.20;3.58;;;16.70;99.90;;;;;;5128196;27;20091;-91
2023/08/02 20:39:27;;;;;;;10.38;2.80;;;;;;;;;;5134551;27;20038;-91
2023/08/02 20:42:12;;;;;;;14.15;3.60;;;;;;;;;;5131242;27;20072;-90
2023/08/02 20:44:58;;;;;;;13.63;3.33;;;;;;;;;;5134367;27;20038;-90
2023/08/02 20:47:42;;;;;;;11.35;2.70;;;16.80;99.90;;;;;;5121961;27;20042;-91
2023/08/02 20:50:27;;;;;;;12.18;3.20;;;;;;;;;;5118597;27;20046;-91
2023/08/02 20:53:14;;;;;;;11.57;2.80;;;16.50;99.90;;;;;;5133721;27;20034;-92
2023/08/02 20:56:01;;;;;;;11.20;3.10;;;;;;;;;;5132518;27;20050;-91
2023/08/02 20:58:46;;;;;;;13.27;3.15;;;;;;;;;;5137500;27;20115;-92
2023/08/02 21:01:31;;;;;;;12.45;3.65;;;;;;;;;;5133950;27;20508;-91
2023/08/02 21:04:16;;;;;;;14.95;3.38;;;;;;;;;;5133342;27;20079;-91
2023/08/02 21:07:00;;;;;;;13.63;3.38;;;;;;;;;;5133942;27;20420;-91
2023/08/02 21:09:45;;;;;;;13.98;2.90;;;;;;;;;;5122303;27;20514;-92
2023/08/02 21:12:29;;;;;;;16.13;4.03;;;;;;;;;;5134837;27;20481;-91
2023/08/02 21:15:14;;;;;;;11.52;2.72;;;;;;;;;;5133363;27;20038;-93
2023/08/02 21:17:58;;;;;;;14.52;3.22;;;;;;;;;;5138577;27;20075;-92
2023/08/02 21:20:44;;;;;;;11.23;3.25;;;16.30;99.90;;;;;;5133556;27;20101;-92
2023/08/02 21:23:30;;;;;;;12.85;3.05;;;16.30;99.90;;;;;;5133540;27;20095;-89
2023/08/02 21:26:22;;;;;;;15.10;3.50;;;16.20;99.90;;;;;;5144263;27;20065;-92
2023/08/02 21:29:12;;;;;;;16.85;3.38;;;16.30;99.90;;;;;;5133742;27;20117;-86
2023/08/02 21:31:56;;;;;;;16.10;3.75;;;;;;;;;;5147702;27;20054;-91
2023/08/02 21:34:41;;;;;;;11.18;3.50;;;;;;;;;;5135278;27;20502;-91
2023/08/02 21:37:25;;;;;;;14.27;3.70;;;;;;;;;;5121903;27;20084;-92
2023/08/02 21:40:14;;;;;;;15.02;3.08;;;16.10;99.90;;;;;;5134657;27;20083;-92
2023/08/02 21:42:59;;;;;;;9.90;3.40;;;;;;;;;;5120405;27;20038;-93
2023/08/02 21:45:44;;;;;;;9.07;3.00;;;;;;;;;;5121701;27;20112;-92
2023/08/02 21:48:29;;;;;;;10.82;2.70;;;;;;;;;;5125940;27;20695;-92
2023/08/02 21:51:14;;;;;;;12.05;3.10;;;;;;;;;;5140874;27;20095;-93
2023/08/02 21:53:58;;;;;;;8.93;2.83;;;;;;;;;;5123648;27;20038;-93
2023/08/02 21:56:43;;;;;;;13.00;2.90;;;;;;;;;;5135696;27;20042;-92
2023/08/02 21:59:28;;;;;;;6.95;2.72;;;;;;;;;;5136788;27;20091;-93
2023/08/02 22:02:12;;;;;;;15.02;3.10;;;;;;;;;;5145161;27;20046;-93
2023/08/02 22:04:57;;;;;;;12.30;2.67;;;;;;;;;;5144345;27;20551;-93
2023/08/02 22:07:43;;;;;;;9.05;2.88;;;;;;;;;;5142546;27;20034;-96
2023/08/02 22:10:28;;;;;;;10.77;3.95;;;;;;;;;;5154644;27;20512;-96
2023/08/02 22:13:14;;;;;;;11.15;3.13;;;;;;;;;;5159662;27;20049;-90
2023/08/02 22:15:59;;;;;;;12.02;3.10;;;;;;;;;;5141860;27;20158;-93
2023/08/02 22:18:44;;;;;;;5.07;2.85;;;;;;;;;;5126180;27;20502;-94
2023/08/02 22:21:29;;;;;;;7.97;3.20;;;;;;;;;;5150279;27;20057;-93
2023/08/02 22:24:13;;;;;;;12.82;4.30;;;;;;;;;;5135916;27;20104;-89
2023/08/02 22:26:58;;;;;;;10.90;3.10;;;;;;;;;;5141104;27;20077;-93
2023/08/02 22:29:47;;;;;;;11.02;3.30;;;;;;;;;;5143355;27;20151;-95
2023/08/02 22:32:31;;;;;;;5.60;3.10;;;;;;;;;;5133992;27;20490;-94
2023/08/02 22:35:16;;;;;;;8.18;2.92;;;;;;;;;;5133489;27;20045;-91
2023/08/02 22:38:00;;;;;;;11.70;2.90;;;;;;;;;;5118679;28;20046;-95
2023/08/02 22:40:45;;;;;;;7.05;3.20;;;;;;;;;;5135321;27;20070;-94
2023/08/02 22:43:30;;;;;;;6.15;3.55;;;;;;;;;;5139851;27;20051;-95
2023/08/02 22:46:14;;;;;;;4.88;2.80;;;;;;;;;;5134222;27;20054;-96
2023/08/02 22:48:59;;;;;;;5.85;2.95;;;;;;;;;;5135195;27;20087;-94
2023/08/02 22:51:43;;;;;;;7.88;3.13;;;;;;;;;;5128065;28;20058;-95
2023/08/02 22:54:28;;;;;;;9.15;3.30;;;;;;;;;;5134058;27;20042;-94
2023/08/02 22:57:19;;;;;;;7.18;2.90;;;;;;;;;;5119440;27;20043;-96
2023/08/02 23:00:04;;;;;;;9.68;3.05;;;;;;;;;;5136294;27;20054;-96
2023/08/02 23:02:48;;;;;;;7.18;3.75;;;;;;;;;;5118153;28;20038;-94
2023/08/02 23:05:33;;;;;;;8.20;3.17;;;;;;;;;;5133957;27;20498;-96
2023/08/02 23:08:18;;;;;;;10.02;3.28;;;;;;;;;;5134172;27;20123;-90
2023/08/02 23:11:04;;;;;;;9.57;3.25;;;15.80;99.90;;;;;;5138884;27;20096;-94
2023/08/02 23:13:49;;;;;;;6.00;3.42;;;;;;;;;;5135032;27;20046;-94
2023/08/02 23:16:34;;;;;;;9.10;3.30;;;;;;;;;;5139658;27;20037;-96
2023/08/02 23:19:18;;;;;;;8.50;3.47;;;;;;;;;;5139285;27;20399;-93
2023/08/02 23:22:09;;;;;;;11.55;3.50;;;;;;;;;;5141426;27;20054;-95
2023/08/02 23:24:54;;;;;;;6.43;3.15;;;;;;;;;;5142184;27;20035;-95
2023/08/02 23:27:39;;;;;;;9.82;3.08;;;;;;;;;;5150840;27;20041;-94
2023/08/02 23:30:26;;;;;;;7.45;3.17;;;;;;;;;;5146312;27;20079;-92
2023/08/02 23:33:11;;;;;;;5.75;2.97;;;;;;;;;;5145444;27;20076;-89
2023/08/02 23:35:56;;;;;;;9.95;4.00;;;;;;;;;;5151698;27;20038;-94
2023/08/02 23:38:41;;;;;;;8.15;2.85;;;;;;;;;;5139090;27;20158;-96
2023/08/02 23:41:25;;;;;;;13.43;3.30;;;;;;;;;;5148427;27;20062;-95
2023/08/02 23:44:10;;;;;;;5.88;3.10;;;;;;;;;;5133441;27;20038;-95
2023/08/02 23:46:54;;;;;;;9.73;3.20;;;;;;;;;;5139358;27;20091;-93
2023/08/02 23:49:39;;;;;;;6.72;3.15;;;;;;;;;;5135142;27;20046;-92
2023/08/02 23:52:23;;;;;;;3.55;2.67;;;;;;;;;;5135287;27;20042;-91
2023/08/02 23:55:08;;;;;;;6.35;2.50;;;;;;;;;;5135482;27;20062;-92
2023/08/02 23:57:53;;;;;;;6.53;2.88;;;;;;;;;;5150706;27;20041;-92
